Time;durP1;ratioP1;P1;durP2;ratioP2;P2;SDS_P1;SDS_P2;PMS_P1;PMS_P2;Temp;Humidity;BMP_temperature;BMP_pressure;BME280_temperature;BME280_humidity;BME280_pressure;Samples;Min_cycle;Max_cycle;Signal;HPM_P1;HPM_P2
2023/07/05 00:00:59;;;;;;;15.35;9.90;;;;;;;18.22;62.18;98294.50;5029201;28;20119;-82
2023/07/05 00:03:24;;;;;;;12.70;10.00;;;;;;;18.18;61.87;98288.13;5042025;28;20051;-82
2023/07/05 00:05:49;;;;;;;17.20;10.93;;;;;;;18.18;62.10;98288.13;5015367;28;20084;-82
2023/07/05 00:08:15;;;;;;;16.85;10.88;;;;;;;18.05;62.45;98272.81;5032891;28;20397;-82
2023/07/05 00:10:40;;;;;;;12.55;9.98;;;;;;;17.89;62.60;98259.72;5036054;28;20485;-82
2023/07/05 00:13:06;;;;;;;14.43;10.52;;;;;;;17.74;62.86;98246.63;5018261;28;20546;-82
2023/07/05 00:15:31;;;;;;;15.23;10.70;;;;;;;18.14;61.71;98243.94;5026884;28;20048;-82
2023/07/05 00:17:57;;;;;;;16.50;10.63;;;;;;;18.14;61.62;98220.44;5031502;28;20033;-82
2023/07/05 00:20:23;;;;;;;18.25;10.27;;;;;;;18.30;61.74;98250.53;5016602;28;20029;-82
2023/07/05 00:22:49;;;;;;;13.82;9.77;;;;;;;17.93;62.25;98230.97;5032095;28;20484;-82
2023/07/05 00:25:14;;;;;;;15.02;10.48;;;;;;;18.26;61.67;98236.06;5033856;28;20025;-82
2023/07/05 00:27:40;;;;;;;18.48;10.40;;;;;;;18.21;61.63;98230.78;5034541;28;20030;-83
2023/07/05 00:30:06;;;;;;;13.32;9.93;;;;;;;17.89;62.77;98221.91;5035076;28;20389;-82
2023/07/05 00:32:32;;;;;;;14.38;9.88;;;;;;;18.09;62.22;98208.97;5037729;28;20123;-82
2023/07/05 00:34:57;;;;;;;18.60;11.25;;;;;;;18.14;61.72;98195.31;5014463;28;20493;-82
2023/07/05 00:37:22;;;;;;;14.00;9.90;;;;;;;18.29;62.10;98213.81;5032189;28;20037;-83
2023/07/05 00:39:48;;;;;;;16.05;10.77;;;;;;;18.25;62.25;98210.94;5012183;28;20036;-83
2023/07/05 00:42:15;;;;;;;14.63;11.13;;;;;;;18.16;61.82;98187.69;5031822;28;20026;-83
2023/07/05 00:44:40;;;;;;;17.33;11.25;;;;;;;18.12;62.16;98184.03;5036873;28;20037;-82
2023/07/05 00:47:27;;;;;;;16.30;10.75;;;;;;;18.12;62.34;98178.63;5025250;28;20539;-83
2023/07/05 00:49:59;;;;;;;14.32;10.57;;;;;;;18.09;62.17;98184.66;5051093;28;20132;-83
2023/07/05 00:52:25;;;;;;;15.15;10.63;;;;;;;18.22;62.13;98192.66;5029006;28;20029;-83
2023/07/05 00:54:54;;;;;;;15.35;10.23;;;;;;;18.06;62.33;98180.69;5036525;28;20029;-83
2023/07/05 00:57:25;;;;;;;12.85;10.25;;;;;;;18.09;62.64;98181.94;5011728;28;21156;-83
2023/07/05 01:00:05;;;;;;;17.65;11.38;;;;;;;18.05;62.25;98179.09;5053429;28;20481;-82
2023/07/05 01:02:31;;;;;;;13.48;9.13;;;;;;;18.13;62.54;98182.94;5031713;28;20401;-83
2023/07/05 01:04:58;;;;;;;14.35;10.00;;;;;;;18.12;62.64;98173.22;5036077;28;20033;-83
2023/07/05 01:07:23;;;;;;;14.68;10.68;;;;;;;17.92;62.59;98161.91;5036144;28;20033;-82
2023/07/05 01:09:49;;;;;;;16.98;10.48;;;;;;;17.75;63.51;98180.72;5030896;28;20507;-83
2023/07/05 01:12:51;;;;;;;13.68;9.88;;;;;;;18.07;63.04;98171.47;5020323;28;20064;-83
2023/07/05 01:15:47;;;;;;;14.40;10.10;;;;;;;18.14;62.74;98161.00;5032281;28;20503;-83
2023/07/05 01:18:55;;;;;;;12.32;9.40;;;;;;;18.14;62.76;98150.22;5037903;28;20041;-82
2023/07/05 01:21:43;;;;;;;17.23;10.75;;;;;;;18.05;62.99;98135.88;4967405;28;20585;-83
2023/07/05 01:24:39;;;;;;;16.17;11.13;;;;;;;18.08;63.72;98124.47;5026256;28;20118;-83
2023/07/05 01:27:36;;;;;;;15.32;10.80;;;;;;;18.21;63.25;98138.94;5036604;28;20033;-82
2023/07/05 01:30:36;;;;;;;15.45;10.52;;;;;;;18.06;63.44;98120.47;5028720;28;20496;-82
2023/07/05 01:33:19;;;;;;;14.95;11.73;;;;;;;17.95;64.45;98128.84;5032226;28;20033;-82
2023/07/05 01:35:48;;;;;;;13.68;10.75;;;;;;;17.91;64.90;98133.28;5034793;28;20512;-82
2023/07/05 01:38:14;;;;;;;16.50;9.77;;;;;;;17.89;64.82;98126.59;5040500;28;20022;-82
2023/07/05 01:40:39;;;;;;;13.93;10.93;;;;;;;18.01;64.68;98137.63;5022019;28;20095;-82
2023/07/05 01:43:11;;;;;;;15.30;10.73;;;;;;;17.84;64.99;98118.66;5034625;28;20514;-82
2023/07/05 01:46:14;;;;;;;13.52;10.05;;;;;;;17.69;65.60;98133.38;5035420;28;20111;-82
2023/07/05 01:48:53;;;;;;;15.75;10.77;;;;;;;17.94;64.89;98134.56;5034273;28;20022;-82
2023/07/05 01:51:41;;;;;;;15.80;10.95;;;;;;;17.73;65.53;98120.88;5032280;28;20532;-83
2023/07/05 01:54:10;;;;;;;14.57;10.35;;;;;;;17.94;64.45;98113.78;5034777;28;20040;-82
2023/07/05 01:56:53;;;;;;;15.23;10.45;;;;;;;17.98;63.80;98125.53;5034729;28;20060;-82
2023/07/05 01:59:23;;;;;;;16.40;10.85;;;;;;;17.88;63.55;98104.22;5026520;28;20508;-82
2023/07/05 02:01:52;;;;;;;16.23;11.85;;;;;;;18.01;63.38;98109.81;5036646;28;20036;-82
2023/07/05 02:04:23;;;;;;;13.45;9.80;;;;;;;17.82;63.71;98086.56;5034056;28;20511;-83
2023/07/05 02:06:51;;;;;;;17.13;10.55;;;;;;;17.87;63.59;98077.53;5032821;28;20150;-82
2023/07/05 02:09:16;;;;;;;18.48;11.70;;;;;;;17.85;63.26;98077.06;5034709;28;20052;-82
2023/07/05 02:11:42;;;;;;;18.65;11.02;;;;;;;17.85;63.16;98077.84;5033237;28;20116;-82
2023/07/05 02:14:08;;;;;;;17.92;10.82;;;;;;;17.91;63.22;98092.78;5050677;28;20120;-82
2023/07/05 02:16:33;;;;;;;17.08;11.65;;;;;;;17.92;63.60;98083.59;5036265;28;20097;-82
2023/07/05 02:18:59;;;;;;;14.50;10.80;;;;;;;17.94;63.48;98092.16;5037998;28;20037;-82
2023/07/05 02:21:24;;;;;;;14.13;10.80;;;;;;;17.76;63.45;98074.34;5034801;28;20029;-83
2023/07/05 02:23:49;;;;;;;15.70;10.95;;;;;;;17.78;63.72;98063.22;5031368;28;20112;-83
2023/07/05 02:26:15;;;;;;;19.50;11.15;;;;;;;17.76;63.92;98074.34;4996829;28;20547;-82
2023/07/05 02:28:40;;;;;;;15.00;10.38;;;;;;;17.69;64.05;98067.81;5030192;28;20033;-82
2023/07/05 02:31:11;;;;;;;15.25;10.73;;;;;;;17.69;63.67;98067.81;5042592;28;20036;-83
2023/07/05 02:33:38;;;;;;;20.25;11.75;;;;;;;17.68;63.44;98058.13;5015732;28;20030;-83
2023/07/05 02:36:12;;;;;;;17.38;11.85;;;;;;;17.66;63.59;98058.44;5032462;28;20017;-83
2023/07/05 02:38:38;;;;;;;15.85;10.57;;;;;;;17.52;64.59;98052.34;5031159;28;20025;-82
2023/07/05 02:41:03;;;;;;;20.70;11.80;;;;;;;17.35;64.35;98044.16;5037917;28;20040;-82
2023/07/05 02:43:29;;;;;;;17.20;11.82;;;;;;;16.97;65.48;98038.44;5031948;28;20033;-82
2023/07/05 02:45:54;;;;;;;15.80;10.93;;;;;;;16.92;65.68;98027.00;5038430;28;20041;-82
2023/07/05 02:48:19;;;;;;;16.10;11.18;;;;;;;17.14;65.01;98024.25;5032792;28;20037;-82
2023/07/05 02:50:45;;;;;;;18.75;10.95;;;;;;;17.11;64.55;98022.97;5026554;28;20044;-82
2023/07/05 02:53:10;;;;;;;13.50;11.35;;;;;;;17.15;64.28;98020.44;5032535;28;20393;-82
2023/07/05 02:55:36;;;;;;;16.50;10.77;;;;;;;17.32;64.21;98022.41;5015944;28;20029;-82
2023/07/05 02:58:01;;;;;;;15.00;10.55;;;;;;;17.36;64.07;98007.19;5033255;28;20022;-82
2023/07/05 03:00:29;;;;;;;18.50;11.38;;;;;;;17.30;63.94;97994.97;5030585;28;20440;-82
2023/07/05 03:02:55;;;;;;;17.27;11.30;;;;;;;17.28;63.63;97995.25;4997435;28;20171;-82
2023/07/05 03:05:20;;;;;;;14.80;10.88;;;;;;;17.05;64.44;98016.13;5036168;28;20025;-82
2023/07/05 03:07:46;;;;;;;20.45;12.45;;;;;;;17.03;64.74;98015.66;5035609;28;20124;-82
2023/07/05 03:10:11;;;;;;;16.52;11.10;;;;;;;16.56;63.91;98000.13;5032094;28;20103;-82
2023/07/05 03:12:36;;;;;;;17.45;12.15;;;;;;;16.77;63.61;97993.16;5021664;28;20044;-82
2023/07/05 03:15:02;;;;;;;18.83;10.82;;;;;;;17.05;63.77;97996.44;5034160;28;20048;-82
2023/07/05 03:17:27;;;;;;;13.25;10.40;;;;;;;17.21;63.94;98013.81;5029610;28;20033;-82
2023/07/05 03:19:56;;;;;;;17.17;10.70;;;;;;;17.11;63.41;98004.09;5027804;28;20132;-82
2023/07/05 03:22:21;;;;;;;14.02;10.85;;;;;;;17.14;63.59;97997.28;5034086;28;20091;-82
2023/07/05 03:24:50;;;;;;;14.05;10.45;;;;;;;17.33;63.71;98016.72;5018323;28;20037;-82
2023/07/05 03:27:16;;;;;;;15.57;11.20;;;;;;;17.40;63.02;98011.66;5038999;28;20112;-82
2023/07/05 03:29:41;;;;;;;14.05;9.88;;;;;;;17.19;63.98;98024.09;5028812;28;20128;-81
2023/07/05 03:32:07;;;;;;;17.17;11.73;;;;;;;17.09;64.33;98010.91;5013920;28;20041;-81
2023/07/05 03:34:33;;;;;;;13.45;10.35;;;;;;;16.64;66.26;98006.69;5037793;28;20049;-81
2023/07/05 03:36:58;;;;;;;12.68;9.95;;;;;;;16.77;65.75;98014.72;5020812;28;20124;-82
2023/07/05 03:39:23;;;;;;;14.35;10.00;;;;;;;16.89;66.08;98009.53;5005924;28;20396;-82
2023/07/05 03:41:49;;;;;;;14.30;9.90;;;;;;;16.90;66.47;98010.34;5020771;28;20033;-82
2023/07/05 03:44:14;;;;;;;11.88;9.10;;;;;;;16.95;66.59;98021.78;5020688;28;20064;-82
2023/07/05 03:46:41;;;;;;;17.83;9.80;;;;;;;17.07;66.68;98021.19;5036442;28;20033;-83
2023/07/05 03:49:07;;;;;;;13.20;8.35;;;;;;;16.85;68.98;98005.88;5031536;28;20045;-82
2023/07/05 03:51:32;;;;;;;11.02;8.55;;;;;;;16.85;69.42;97996.97;5041016;28;20437;-81
2023/07/05 03:53:58;;;;;;;14.43;8.55;;;;;;;17.05;68.58;98001.84;5031132;28;20041;-82
2023/07/05 03:56:25;;;;;;;10.25;7.45;;;;;;;17.11;69.73;98014.06;5009911;28;20064;-82
2023/07/05 03:58:50;;;;;;;9.23;6.25;;;;;;;16.65;73.70;97992.91;5036127;28;20091;-82
2023/07/05 04:01:22;;;;;;;9.10;5.93;;;;;;;16.99;70.70;98005.78;4995288;28;20029;-82
2023/07/05 04:03:50;;;;;;;10.35;6.88;;;;;;;17.04;70.21;97990.25;5031202;28;20026;-82
2023/07/05 04:06:16;;;;;;;8.48;6.03;;;;;;;16.84;73.37;97981.94;5015770;28;20078;-82
2023/07/05 04:08:42;;;;;;;9.52;6.82;;;;;;;16.67;72.87;97973.72;5015050;28;20122;-82
2023/07/05 04:11:08;;;;;;;11.82;7.75;;;;;;;16.73;73.92;97994.06;5013461;28;20084;-82
2023/07/05 04:13:34;;;;;;;13.98;7.93;;;;;;;16.44;74.42;97989.09;5025496;28;20025;-82
2023/07/05 04:16:10;;;;;;;12.60;8.20;;;;;;;16.05;76.95;97967.44;5019765;28;20499;-82
2023/07/05 04:18:37;;;;;;;15.77;9.07;;;;;;;16.01;76.75;97990.69;5027090;28;20047;-81
2023/07/05 04:21:02;;;;;;;22.30;9.73;;;;;;;15.94;76.33;97969.56;5034451;28;20029;-81
2023/07/05 04:23:28;;;;;;;14.60;9.27;;;;;;;16.33;73.86;97983.19;4995533;28;20501;-81
2023/07/05 04:26:05;;;;;;;16.05;10.43;;;;;;;16.24;74.65;97973.44;5033487;28;20025;-81
2023/07/05 04:28:31;;;;;;;23.38;10.63;;;;;;;16.22;75.35;97970.25;5027734;28;20477;-80
2023/07/05 04:30:57;;;;;;;13.77;9.75;;;;;;;16.06;77.04;97967.13;5029994;28;20123;-81
2023/07/05 04:33:22;;;;;;;13.25;9.25;;;;;;;16.42;74.81;97959.00;5017392;28;20128;-81
2023/07/05 04:35:50;;;;;;;12.68;8.90;;;;;;;16.48;74.11;97952.38;5032936;28;20037;-81
2023/07/05 04:38:15;;;;;;;12.65;8.70;;;;;;;16.18;77.30;97956.63;5033070;28;20026;-81
2023/07/05 04:40:41;;;;;;;14.82;9.18;;;;;;;15.54;80.47;97933.59;5038194;28;20036;-80
2023/07/05 04:43:06;;;;;;;14.73;10.00;;;;;;;15.98;78.16;97932.88;5026425;28;20484;-81
2023/07/05 04:45:32;;;;;;;12.35;9.20;;;;;;;15.89;78.72;97931.19;5035938;28;20041;-80
2023/07/05 04:47:57;;;;;;;14.10;10.52;;;;;;;16.11;76.49;97937.41;5028795;28;20037;-81
2023/07/05 04:50:23;;;;;;;12.18;8.43;;;;;;;16.67;74.31;97933.31;5011252;28;20031;-81
2023/07/05 04:52:48;;;;;;;12.38;9.10;;;;;;;16.59;75.71;97942.97;5013057;28;20063;-81
2023/07/05 04:55:14;;;;;;;13.18;8.98;;;;;;;16.77;73.96;97954.63;5031239;28;20483;-81
2023/07/05 04:57:42;;;;;;;12.63;8.43;;;;;;;16.91;73.52;97948.03;5024267;28;20033;-81
2023/07/05 05:00:08;;;;;;;13.65;8.65;;;;;;;16.73;75.77;97957.13;5035560;28;20030;-81
2023/07/05 05:02:34;;;;;;;12.30;7.35;;;;;;;16.37;77.03;97935.69;5015620;28;20064;-81
2023/07/05 05:04:59;;;;;;;12.02;8.10;;;;;;;16.73;75.32;97950.97;5018686;28;20056;-81
2023/07/05 05:07:25;;;;;;;13.35;7.85;;;;;;;16.71;75.21;97951.25;5040555;28;20072;-81
2023/07/05 05:09:50;;;;;;;12.43;7.75;;;;;;;16.86;75.20;97945.44;5020206;28;20033;-81
2023/07/05 05:12:16;;;;;;;9.82;6.97;;;;;;;17.01;74.38;97950.44;5018406;28;20041;-81
2023/07/05 05:14:41;;;;;;;9.20;6.70;;;;;;;17.07;74.26;97927.63;5033552;28;20036;-81
2023/07/05 05:17:07;;;;;;;10.18;5.82;;;;;;;17.03;75.28;97937.47;5029539;28;20029;-81
2023/07/05 05:19:32;;;;;;;6.78;5.18;;;;;;;16.95;75.62;97940.13;5032448;28;20049;-81
2023/07/05 05:21:57;;;;;;;7.53;5.38;;;;;;;17.08;75.76;97955.41;5025960;28;20021;-81
2023/07/05 05:24:23;;;;;;;13.20;6.05;;;;;;;16.99;75.75;97946.47;5045604;28;20159;-81
2023/07/05 05:26:48;;;;;;;13.52;5.03;;;;;;;17.01;75.84;97931.59;5029878;28;20678;-81
2023/07/05 05:29:14;;;;;;;8.07;5.28;;;;;;;16.97;76.21;97937.91;5024388;28;20033;-81
2023/07/05 05:31:39;;;;;;;6.70;5.00;;;;;;;17.18;75.96;97961.28;5028844;28;20393;-81
2023/07/05 05:34:05;;;;;;;5.10;4.57;;;;;;;17.12;76.59;97943.66;5031705;28;20029;-82
2023/07/05 05:36:30;;;;;;;7.15;5.05;;;;;;;16.88;78.23;97921.69;5013107;28;20034;-81
2023/07/05 05:38:55;;;;;;;5.93;5.25;;;;;;;17.06;77.84;97934.13;5015208;28;20551;-81
2023/07/05 05:41:21;;;;;;;12.25;5.55;;;;;;;17.11;79.01;97941.28;5030912;28;20064;-81
2023/07/05 05:43:47;;;;;;;8.07;5.15;;;;;;;17.08;79.22;97939.22;5015568;28;20115;-81
2023/07/05 05:46:13;;;;;;;8.55;5.05;;;;;;;17.20;78.96;97952.88;5035953;28;20034;-82
2023/07/05 05:48:38;;;;;;;6.55;4.82;;;;;;;17.11;79.77;97938.56;5022642;28;20076;-82
2023/07/05 05:51:04;;;;;;;7.47;4.93;;;;;;;17.30;79.29;97957.22;5046997;28;20041;-81
2023/07/05 05:53:29;;;;;;;7.60;5.45;;;;;;;17.26;79.38;97954.31;5030180;28;20175;-82
2023/07/05 05:55:56;;;;;;;7.88;5.80;;;;;;;17.38;78.36;97942.94;5037376;28;20033;-82
2023/07/05 05:58:22;;;;;;;7.68;5.93;;;;;;;17.35;78.88;97955.16;5028380;28;20029;-81
2023/07/05 06:00:48;;;;;;;7.93;5.72;;;;;;;17.45;77.97;97944.03;5030162;28;20037;-82
2023/07/05 06:03:13;;;;;;;8.13;5.10;;;;;;;17.32;78.27;97922.63;5035248;28;20571;-81
2023/07/05 06:05:39;;;;;;;8.95;5.88;;;;;;;17.49;78.29;97945.03;5033271;28;20079;-81
2023/07/05 06:08:04;;;;;;;9.25;5.20;;;;;;;17.26;80.57;97951.63;5034173;28;20038;-81
2023/07/05 06:10:31;;;;;;;8.57;6.30;;;;;;;17.33;79.91;97946.56;5035536;28;20040;-81
2023/07/05 06:12:56;;;;;;;11.90;5.65;;;;;;;17.36;80.50;97953.25;5034350;28;20472;-82
2023/07/05 06:15:21;;;;;;;11.13;5.97;;;;;;;17.32;79.72;97947.66;5021820;28;20037;-83
2023/07/05 06:17:47;;;;;;;8.20;4.53;;;;;;;17.43;79.24;97948.19;5016714;28;20096;-83
2023/07/05 06:20:16;;;;;;;10.10;5.45;;;;;;;17.20;80.18;97940.19;5021284;28;20030;-82
2023/07/05 06:22:42;;;;;;;10.50;5.55;;;;;;;17.21;81.61;97959.88;5024270;28;20037;-82
2023/07/05 06:25:10;;;;;;;8.05;4.47;;;;;;;17.17;81.89;97959.69;5023579;28;20511;-83
2023/07/05 06:27:36;;;;;;;7.88;5.00;;;;;;;17.30;81.71;97976.84;5021344;28;20104;-82
2023/07/05 06:30:02;;;;;;;13.82;5.75;;;;;;;17.25;80.97;97975.09;5020953;28;20029;-81
2023/07/05 06:32:27;;;;;;;11.60;4.78;;;;;;;16.92;83.58;97971.19;5037415;28;20044;-82
2023/07/05 06:34:53;;;;;;;7.50;4.72;;;;;;;17.08;83.12;97966.19;5021479;28;20056;-82
2023/07/05 06:37:18;;;;;;;4.28;3.30;;;;;;;17.02;83.68;97967.41;5020983;28;20037;-81
2023/07/05 06:39:44;;;;;;;7.72;4.05;;;;;;;17.18;82.18;97960.50;4991862;28;20033;-81
2023/07/05 06:42:09;;;;;;;4.55;3.67;;;;;;;17.31;81.64;97975.75;5020508;28;20025;-81
2023/07/05 06:44:34;;;;;;;8.02;4.45;;;;;;;17.37;82.31;97974.50;5018768;28;20029;-82
2023/07/05 06:47:00;;;;;;;5.07;3.63;;;;;;;17.17;83.52;97967.78;5021322;28;20116;-83
2023/07/05 06:49:26;;;;;;;4.22;3.38;;;;;;;17.34;82.49;97985.94;5020163;28;20033;-82
2023/07/05 06:51:53;;;;;;;3.95;2.67;;;;;;;17.23;83.22;97992.72;5016499;28;20038;-82
2023/07/05 06:54:22;;;;;;;5.40;3.70;;;;;;;17.37;82.87;97982.59;5019359;28;20037;-82
2023/07/05 06:56:48;;;;;;;5.40;3.47;;;;;;;17.32;82.61;97981.97;5036199;28;20033;-82
2023/07/05 06:59:13;;;;;;;5.38;3.13;;;;;;;17.23;83.42;97990.78;5019918;28;20377;-82
2023/07/05 07:01:39;;;;;;;5.13;2.40;;;;;;;17.10;83.22;98001.72;5013836;28;20061;-82
2023/07/05 07:04:07;;;;;;;6.32;2.92;;;;;;;16.95;82.24;97986.72;5022131;28;20404;-83
2023/07/05 07:06:35;;;;;;;4.78;2.60;;;;;;;17.14;82.11;97997.28;5020166;28;20500;-82
2023/07/05 07:09:05;;;;;;;4.28;2.40;;;;;;;17.20;81.07;97994.13;5006278;28;20493;-82
2023/07/05 07:11:31;;;;;;;2.60;2.40;;;;;;;16.99;81.32;97973.44;5018170;28;20025;-82
2023/07/05 07:13:56;;;;;;;3.28;2.78;;;;;;;17.13;81.58;98009.97;5022467;28;20087;-83
2023/07/05 07:16:21;;;;;;;4.85;2.60;;;;;;;17.19;80.45;97989.03;5018986;28;20040;-82
2023/07/05 07:18:49;;;;;;;5.13;3.35;;;;;;;17.26;79.15;97984.00;5034559;28;20033;-83
2023/07/05 07:21:16;;;;;;;3.83;3.15;;;;;;;17.22;79.38;97988.44;5017893;28;20120;-82
2023/07/05 07:23:42;;;;;;;3.97;3.33;;;;;;;17.18;78.88;98006.34;5019434;28;20420;-82
2023/07/05 07:26:11;;;;;;;5.45;3.50;;;;;;;17.27;78.30;98007.16;5034539;28;20041;-82
2023/07/05 07:28:37;;;;;;;3.55;3.00;;;;;;;17.12;78.70;98000.28;5020896;28;20410;-81
2023/07/05 07:31:13;;;;;;;4.45;3.50;;;;;;;17.18;77.72;97987.47;5017058;28;20037;-82
2023/07/05 07:33:39;;;;;;;4.35;3.83;;;;;;;17.25;77.72;97993.97;5017860;28;20059;-82
2023/07/05 07:36:11;;;;;;;7.00;3.67;;;;;;;17.14;77.29;97973.00;5017531;28;20044;-82
2023/07/05 07:38:38;;;;;;;6.47;4.32;;;;;;;17.20;78.51;98001.44;5018899;28;20021;-82
2023/07/05 07:41:03;;;;;;;4.70;3.38;;;;;;;17.30;77.05;97998.44;5018789;28;20425;-82
2023/07/05 07:43:29;;;;;;;6.18;4.22;;;;;;;17.41;76.91;98007.06;5002786;28;20040;-81
2023/07/05 07:45:54;;;;;;;6.35;4.35;;;;;;;17.35;77.35;98011.00;5017323;28;20032;-82
2023/07/05 07:48:19;;;;;;;4.80;3.72;;;;;;;17.44;76.25;98007.22;5019525;28;20579;-81
2023/07/05 07:50:49;;;;;;;5.90;4.40;;;;;;;17.49;77.03;98014.38;5018981;28;20520;-82
2023/07/05 07:53:15;;;;;;;7.85;4.40;;;;;;;17.45;75.80;98014.19;5019470;28;20031;-82
2023/07/05 07:55:40;;;;;;;6.25;4.40;;;;;;;17.60;75.52;98019.22;5015681;28;20604;-82
2023/07/05 07:58:06;;;;;;;5.97;3.88;;;;;;;17.51;75.18;98028.38;5018061;28;20568;-82
2023/07/05 08:00:31;;;;;;;6.72;4.57;;;;;;;17.57;75.35;98030.63;5013511;28;20065;-82
2023/07/05 08:02:56;;;;;;;7.05;4.13;;;;;;;17.57;74.76;98022.53;4983118;28;20071;-82
2023/07/05 08:05:23;;;;;;;7.55;5.32;;;;;;;17.59;74.46;98050.00;5014755;28;20076;-82
2023/07/05 08:07:49;;;;;;;6.47;4.65;;;;;;;17.66;73.77;98044.13;5016878;28;20037;-82
2023/07/05 08:10:16;;;;;;;8.90;5.07;;;;;;;17.82;73.41;98046.06;5015505;28;20485;-82
2023/07/05 08:12:41;;;;;;;9.63;5.57;;;;;;;18.01;72.64;98056.59;5012775;28;20098;-82
2023/07/05 08:15:07;;;;;;;8.77;5.30;;;;;;;17.82;72.54;98048.78;5016467;28;20564;-82
2023/07/05 08:17:33;;;;;;;7.57;5.10;;;;;;;17.74;71.78;98043.34;5015922;28;20412;-82
2023/07/05 08:19:59;;;;;;;6.53;4.82;;;;;;;18.01;71.12;98058.50;5016139;28;20451;-82
2023/07/05 08:22:24;;;;;;;6.65;5.00;;;;;;;18.21;70.49;98079.50;5030327;28;20037;-82
2023/07/05 08:24:50;;;;;;;5.10;3.92;;;;;;;18.22;70.67;98067.56;4999691;28;20052;-83
2023/07/05 08:27:15;;;;;;;6.88;4.70;;;;;;;18.36;70.05;98074.44;5014591;28;20601;-81
2023/07/05 08:29:41;;;;;;;7.03;4.82;;;;;;;18.25;70.10;98058.84;5016310;28;20029;-82
2023/07/05 08:32:07;;;;;;;7.60;5.28;;;;;;;18.36;70.25;98060.13;5017124;28;20149;-82
2023/07/05 08:34:32;;;;;;;5.32;4.38;;;;;;;18.27;69.73;98056.63;5015187;28;20037;-82
2023/07/05 08:36:58;;;;;;;8.52;4.43;;;;;;;18.32;68.83;98069.97;5014624;28;21556;-83
2023/07/05 08:39:23;;;;;;;7.75;4.63;;;;;;;18.27;68.20;98062.81;5013095;28;20034;-82
2023/07/05 08:42:19;;;;;;;9.60;4.50;;;;;;;18.24;67.95;98058.03;5014698;28;20033;-82
2023/07/05 08:44:55;;;;;;;5.10;4.45;;;;;;;18.24;67.30;98076.19;5015632;28;20033;-82
2023/07/05 08:47:30;;;;;;;5.85;4.40;;;;;;;18.31;66.43;98079.19;5015807;28;20036;-82
2023/07/05 08:50:18;;;;;;;7.90;4.97;;;;;;;18.29;65.36;98070.59;5011917;28;20083;-82
2023/07/05 08:52:47;;;;;;;5.80;3.97;;;;;;;18.37;65.39;98075.25;5017432;28;20036;-82
2023/07/05 08:55:21;;;;;;;4.93;3.50;;;;;;;18.42;64.78;98089.38;5001921;28;20443;-82
2023/07/05 08:57:53;;;;;;;8.48;4.20;;;;;;;18.39;64.03;98097.34;5014732;28;20124;-82
2023/07/05 09:00:59;;;;;;;5.90;4.53;;;;;;;18.48;63.39;98090.03;5014283;28;21644;-82
2023/07/05 09:03:28;;;;;;;9.88;3.80;;;;;;;18.33;63.69;98090.47;4998183;28;20805;-82
2023/07/05 09:06:32;;;;;;;4.60;3.58;;;;;;;18.35;62.64;98101.75;5015994;28;20029;-82
2023/07/05 09:09:43;;;;;;;5.03;4.05;;;;;;;18.36;63.10;98104.16;4984136;28;20104;-82
2023/07/05 09:12:30;;;;;;;8.27;3.83;;;;;;;18.27;63.24;98119.56;5014281;28;20043;-82
2023/07/05 09:14:55;;;;;;;8.35;3.45;;;;;;;18.12;63.21;98119.22;5016152;28;20040;-82
2023/07/05 09:17:26;;;;;;;5.35;3.63;;;;;;;18.07;62.63;98122.06;5028559;28;20469;-82
2023/07/05 09:20:25;;;;;;;8.07;3.80;;;;;;;18.03;62.67;98126.50;5011444;28;20079;-82
2023/07/05 09:22:52;;;;;;;7.80;4.47;;;;;;;18.06;61.73;98129.38;5013219;28;20065;-82
2023/07/05 09:25:22;;;;;;;8.02;3.78;;;;;;;18.15;61.41;98132.88;5012634;28;20545;-82
2023/07/05 09:27:55;;;;;;;6.50;3.88;;;;;;;18.15;62.21;98140.22;5014381;28;20038;-81
2023/07/05 09:30:26;;;;;;;4.82;3.42;;;;;;;18.03;61.92;98148.09;5014052;28;20053;-81
2023/07/05 09:32:59;;;;;;;6.05;3.97;;;;;;;18.02;61.86;98135.72;5002867;28;20029;-81
2023/07/05 09:35:28;;;;;;;4.82;3.63;;;;;;;18.05;60.55;98127.78;5016030;28;20025;-82
2023/07/05 09:38:12;;;;;;;4.65;3.55;;;;;;;18.22;60.44;98151.31;5013975;28;20033;-82
2023/07/05 09:40:47;;;;;;;5.97;3.40;;;;;;;18.31;59.96;98146.72;5013484;28;20140;-82
2023/07/05 09:43:36;;;;;;;5.95;3.42;;;;;;;18.48;58.27;98153.00;5011920;28;20037;-82
2023/07/05 09:46:06;;;;;;;6.95;3.22;;;;;;;18.58;58.18;98166.22;5019126;28;20041;-81
2023/07/05 09:48:41;;;;;;;8.30;3.35;;;;;;;18.55;58.04;98174.16;5018331;28;20156;-81
2023/07/05 09:51:06;;;;;;;5.05;2.78;;;;;;;18.54;59.49;98172.56;5021083;28;20021;-82
2023/07/05 09:53:59;;;;;;;3.35;2.83;;;;;;;18.76;57.25;98204.88;5036243;28;20548;-82
2023/07/05 09:56:28;;;;;;;4.05;2.58;;;;;;;18.40;58.38;98179.97;5019257;28;20017;-82
2023/07/05 09:59:21;;;;;;;6.68;3.08;;;;;;;18.48;57.97;98208.94;5015918;28;20036;-82
2023/07/05 10:01:51;;;;;;;3.92;3.00;;;;;;;18.61;57.64;98202.59;5032868;28;20037;-82
2023/07/05 10:04:17;;;;;;;4.40;2.75;;;;;;;18.72;56.65;98200.41;5016184;28;20025;-82
2023/07/05 10:06:46;;;;;;;3.33;2.38;;;;;;;18.63;56.25;98220.09;5030077;28;20044;-82
2023/07/05 10:09:19;;;;;;;5.10;2.80;;;;;;;18.76;55.88;98231.13;5021934;28;20028;-82
2023/07/05 10:11:52;;;;;;;3.95;2.35;;;;;;;18.59;55.87;98232.66;5038054;28;20518;-82
2023/07/05 10:14:20;;;;;;;2.90;2.20;;;;;;;18.58;55.83;98230.28;5029278;28;20124;-82
2023/07/05 10:16:53;;;;;;;3.20;2.45;;;;;;;18.66;56.72;98240.31;5014445;28;20040;-82
2023/07/05 10:19:19;;;;;;;2.90;2.28;;;;;;;18.51;55.13;98241.56;5036698;28;20026;-82
2023/07/05 10:21:47;;;;;;;4.05;2.17;;;;;;;18.68;55.38;98251.59;5031472;28;20476;-81
2023/07/05 10:24:13;;;;;;;5.47;1.73;;;;;;;18.73;55.36;98231.72;5007340;28;20026;-81
2023/07/05 10:26:41;;;;;;;1.75;1.63;;;;;;;18.83;55.41;98243.03;5018127;28;20116;-82
2023/07/05 10:29:10;;;;;;;2.22;2.03;;;;;;;18.91;54.64;98242.28;5027670;28;20508;-82
2023/07/05 10:31:36;;;;;;;2.35;2.15;;;;;;;18.84;54.38;98247.34;5026850;28;20022;-82
2023/07/05 10:34:20;;;;;;;2.88;1.85;;;;;;;18.78;55.75;98248.63;5021799;28;20516;-81
2023/07/05 10:36:48;;;;;;;2.05;1.45;;;;;;;18.80;54.90;98242.88;5022318;28;20507;-82
2023/07/05 10:39:21;;;;;;;2.65;1.77;;;;;;;18.99;54.30;98263.09;5012660;28;20029;-82
2023/07/05 10:41:50;;;;;;;2.83;1.85;;;;;;;19.07;54.86;98254.19;5026041;28;20159;-81
2023/07/05 10:44:24;;;;;;;3.33;2.08;;;;;;;19.25;54.26;98261.22;4993086;28;20065;-82
2023/07/05 10:46:50;;;;;;;3.30;1.80;;;;;;;19.23;54.74;98258.03;5020004;28;20929;-82
2023/07/05 10:49:18;;;;;;;1.88;1.60;;;;;;;19.20;56.13;98258.66;5025046;28;20044;-82
2023/07/05 10:51:49;;;;;;;3.10;2.08;;;;;;;19.17;55.53;98264.72;5003067;28;20037;-81
2023/07/05 10:54:21;;;;;;;3.58;2.00;;;;;;;19.20;56.11;98274.88;5021169;28;20101;-83
2023/07/05 10:56:48;;;;;;;3.05;1.50;;;;;;;18.88;56.33;98259.13;5014306;28;20033;-81
2023/07/05 10:59:32;;;;;;;4.28;2.58;;;;;;;18.97;56.22;98281.56;5018816;28;20064;-81
2023/07/05 11:02:02;;;;;;;2.42;1.88;;;;;;;18.77;55.86;98286.75;5017704;28;20037;-81
2023/07/05 11:04:31;;;;;;;4.63;3.35;;;;;;;18.73;55.68;98294.72;5019595;28;20080;-81
2023/07/05 11:07:10;;;;;;;4.95;2.15;;;;;;;18.88;55.06;98283.47;5018874;28;20026;-82
2023/07/05 11:09:37;;;;;;;2.50;2.30;;;;;;;19.25;54.49;98282.06;5020105;28;20044;-82
2023/07/05 11:12:22;;;;;;;4.90;2.10;;;;;;;19.28;54.03;98270.59;5018691;28;20091;-82
2023/07/05 11:14:49;;;;;;;2.60;2.10;;;;;;;19.36;54.07;98272.53;5016291;28;20029;-81
2023/07/05 11:17:36;;;;;;;2.58;2.13;;;;;;;19.24;54.08;98280.47;5019883;28;20765;-82
2023/07/05 11:20:06;;;;;;;4.40;2.10;;;;;;;19.17;53.76;98282.84;5018125;28;20035;-82
2023/07/05 11:22:43;;;;;;;3.15;1.90;;;;;;;19.40;53.56;98295.94;5018464;28;20033;-81
2023/07/05 11:25:16;;;;;;;3.25;1.80;;;;;;;19.47;53.00;98279.22;5016752;28;20102;-82
2023/07/05 11:27:46;;;;;;;10.75;2.75;;;;;;;19.41;53.62;98302.16;5013533;28;20026;-82
2023/07/05 11:30:40;;;;;;;3.40;1.77;;;;;;;19.52;54.25;98308.84;5019488;28;20037;-81
2023/07/05 11:33:06;;;;;;;2.00;1.58;;;;;;;19.50;53.83;98308.38;5017874;28;20037;-82
2023/07/05 11:35:47;;;;;;;3.08;2.13;;;;;;;19.51;52.79;98315.34;5017724;28;20029;-81
2023/07/05 11:38:51;;;;;;;1.75;1.48;;;;;;;19.57;52.80;98305.19;5018050;28;20025;-81